createdAt,value
2023-03-04T00:02:16.151Z,77262.97
2023-03-04T00:04:43.912Z,77269.06
2023-03-04T00:07:12.613Z,77265.00
2023-03-04T00:09:40.350Z,77269.06
2023-03-04T00:12:08.943Z,77269.06
2023-03-04T00:14:36.844Z,77260.91
2023-03-04T00:17:04.717Z,77273.16
2023-03-04T00:19:35.047Z,77269.06
2023-03-04T00:22:03.921Z,77281.31
2023-03-04T00:24:31.856Z,77289.47
2023-03-04T00:26:59.713Z,77293.53
2023-03-04T00:29:27.747Z,77291.50
2023-03-04T00:31:55.692Z,77287.44
2023-03-04T00:34:23.525Z,77281.31
2023-03-04T00:36:52.676Z,77285.38
2023-03-04T00:39:20.415Z,77281.31
2023-03-04T00:41:48.166Z,77283.34
2023-03-04T00:44:15.938Z,77277.22
2023-03-04T00:46:43.658Z,77273.16
2023-03-04T00:49:11.420Z,77267.03
2023-03-04T00:51:39.208Z,77260.91
2023-03-04T00:54:08.307Z,77252.75
2023-03-04T00:56:36.078Z,77246.63
2023-03-04T00:59:03.880Z,77244.59
2023-03-04T01:01:31.627Z,77244.59
2023-03-04T01:03:59.366Z,77240.53
2023-03-04T01:06:27.177Z,77232.38
2023-03-04T01:08:54.939Z,77232.38
2023-03-04T01:11:24.143Z,77234.41
2023-03-04T01:13:51.985Z,77242.56
2023-03-04T01:16:19.881Z,77244.59
2023-03-04T01:18:47.794Z,77244.59
2023-03-04T01:21:16.021Z,77244.59
2023-03-04T01:23:44.149Z,77244.59
2023-03-04T01:26:11.946Z,77248.69
2023-03-04T01:28:41.170Z,77254.78
2023-03-04T01:31:09.000Z,77260.91
2023-03-04T01:33:36.762Z,77260.91
2023-03-04T01:36:04.902Z,77256.84
2023-03-04T01:38:32.634Z,77262.97
2023-03-04T01:41:00.505Z,77269.06
2023-03-04T01:43:30.064Z,77269.06
2023-03-04T01:45:59.958Z,77273.16
2023-03-04T01:48:30.028Z,77277.22
2023-03-04T01:50:59.269Z,77293.53
2023-03-04T01:53:28.916Z,77297.63
2023-03-04T01:55:58.746Z,77303.75
2023-03-04T01:58:29.428Z,77301.72
2023-03-04T02:00:57.230Z,77297.63
2023-03-04T02:03:26.803Z,77299.66
2023-03-04T02:05:55.135Z,77299.66
2023-03-04T02:08:25.413Z,77293.53
2023-03-04T02:10:53.691Z,77293.53
2023-03-04T02:13:21.625Z,77293.53
2023-03-04T02:15:50.003Z,77287.44
2023-03-04T02:18:20.408Z,77289.47
2023-03-04T02:20:59.293Z,77287.44
2023-03-04T02:23:34.236Z,77289.47
2023-03-04T02:26:16.453Z,77289.47
2023-03-04T02:28:44.823Z,77283.34
2023-03-04T02:31:23.339Z,77281.31
2023-03-04T02:33:51.973Z,77285.38
2023-03-04T02:36:20.016Z,77285.38
2023-03-04T02:38:47.776Z,77281.31
2023-03-04T02:41:20.689Z,77281.31
2023-03-04T02:43:50.195Z,77285.38
2023-03-04T02:46:18.020Z,77285.38
2023-03-04T02:48:45.813Z,77283.34
2023-03-04T02:51:13.552Z,77281.31
2023-03-04T02:53:41.343Z,77281.31
2023-03-04T02:56:09.541Z,77285.38
2023-03-04T02:58:40.214Z,77285.38
2023-03-04T03:01:08.104Z,77285.38
2023-03-04T03:03:35.875Z,77289.47
2023-03-04T03:06:03.747Z,77297.63
2023-03-04T03:08:31.531Z,77293.53
2023-03-04T03:10:59.279Z,77289.47
2023-03-04T03:13:27.057Z,77293.53
2023-03-04T03:15:56.297Z,77287.44
2023-03-04T03:18:24.116Z,77285.38
2023-03-04T03:20:51.837Z,77285.38
2023-03-04T03:23:20.997Z,77283.34
2023-03-04T03:25:48.723Z,77275.19
2023-03-04T03:28:16.463Z,77277.22
2023-03-04T03:30:44.310Z,77283.34
2023-03-04T03:33:13.396Z,77275.19
2023-03-04T03:35:41.145Z,77275.19
2023-03-04T03:38:09.064Z,77265.00
2023-03-04T03:40:36.832Z,77256.84
2023-03-04T03:43:04.993Z,77248.69
2023-03-04T03:45:33.130Z,77236.44
2023-03-04T03:48:01.041Z,77240.53
2023-03-04T03:50:30.128Z,77236.44
2023-03-04T03:52:58.246Z,77226.25
2023-03-04T03:55:27.084Z,77226.25
2023-03-04T03:57:54.823Z,77222.16
2023-03-04T04:00:23.005Z,77216.03
2023-03-04T04:02:50.887Z,77216.03
2023-03-04T04:05:18.850Z,77211.97
2023-03-04T04:07:47.978Z,77216.03
2023-03-04T04:10:15.701Z,77216.03
2023-03-04T04:12:43.444Z,77207.88
2023-03-04T04:15:12.888Z,77203.81
2023-03-04T04:17:40.953Z,77209.94
2023-03-04T04:20:10.158Z,77199.72
2023-03-04T04:22:37.952Z,77199.72
2023-03-04T04:25:10.575Z,77195.66
2023-03-04T04:27:38.641Z,77193.63
2023-03-04T04:30:07.462Z,77195.66
2023-03-04T04:32:35.305Z,77193.63
2023-03-04T04:35:03.204Z,77187.50
2023-03-04T04:37:31.001Z,77187.50
2023-03-04T04:39:58.742Z,77187.50
2023-03-04T04:42:28.328Z,77179.34
2023-03-04T04:44:57.339Z,77181.38
2023-03-04T04:47:25.087Z,77185.47
2023-03-04T04:49:52.920Z,77183.41
2023-03-04T04:52:20.646Z,77189.53
2023-03-04T04:54:48.424Z,77187.50
2023-03-04T04:57:16.218Z,77191.56
2023-03-04T04:59:45.348Z,77197.69
2023-03-04T05:02:13.089Z,77195.66
2023-03-04T05:04:40.888Z,77203.81
2023-03-04T05:07:08.648Z,77203.81
2023-03-04T05:09:36.381Z,77214.00
2023-03-04T05:12:04.459Z,77211.97
2023-03-04T05:14:32.207Z,77209.94
2023-03-04T05:17:01.314Z,77211.97
2023-03-04T05:19:29.587Z,77205.84
2023-03-04T05:21:57.358Z,77207.88
2023-03-04T05:24:25.232Z,77211.97
2023-03-04T05:26:53.017Z,77207.88
2023-03-04T05:29:20.996Z,77207.88
2023-03-04T05:31:48.743Z,77207.88
2023-03-04T05:34:18.158Z,77209.94
2023-03-04T05:36:45.944Z,77205.84
2023-03-04T05:39:13.734Z,77211.97
2023-03-04T05:41:41.532Z,77211.97
2023-03-04T05:44:09.296Z,77214.00
2023-03-04T05:46:37.116Z,77216.03
2023-03-04T05:49:04.919Z,77216.03
2023-03-04T05:51:34.017Z,77220.13
2023-03-04T05:54:01.769Z,77211.97
2023-03-04T05:56:30.492Z,77222.16
2023-03-04T05:58:59.031Z,77211.97
2023-03-04T06:01:27.492Z,77211.97
2023-03-04T06:03:55.397Z,77203.81
2023-03-04T06:06:23.234Z,77199.72
2023-03-04T06:08:52.384Z,77199.72
2023-03-04T06:11:20.221Z,77195.66
2023-03-04T06:13:48.000Z,77197.69
2023-03-04T06:16:15.938Z,77195.66
2023-03-04T06:18:43.805Z,77191.56
2023-03-04T06:21:11.577Z,77183.41
2023-03-04T06:23:39.390Z,77175.25
2023-03-04T06:26:12.166Z,77167.09
2023-03-04T06:28:39.920Z,77167.09
2023-03-04T06:31:07.759Z,77154.88
2023-03-04T06:33:35.560Z,77150.78
2023-03-04T06:36:03.702Z,77146.72
2023-03-04T06:38:31.618Z,77138.56
2023-03-04T06:41:09.153Z,77130.41
2023-03-04T06:43:37.174Z,77124.28
2023-03-04T06:46:05.339Z,77114.06
2023-03-04T06:48:33.097Z,77110.00
2023-03-04T06:51:06.817Z,77107.97
2023-03-04T06:53:34.563Z,77093.69
2023-03-04T06:56:02.543Z,77093.69
2023-03-04T06:58:31.792Z,77089.59
2023-03-04T07:01:17.152Z,77075.31
2023-03-04T07:03:45.835Z,77071.25
2023-03-04T07:06:14.842Z,77056.97
2023-03-04T07:08:43.358Z,77050.84
2023-03-04T07:11:11.531Z,77044.75
2023-03-04T07:13:40.861Z,77040.66
2023-03-04T07:16:10.739Z,77024.34
2023-03-04T07:18:39.558Z,77020.25
2023-03-04T07:21:09.053Z,77010.06
2023-03-04T07:23:37.804Z,77001.91
2023-03-04T07:26:06.215Z,76995.78
2023-03-04T07:28:34.598Z,76989.69
2023-03-04T07:31:16.574Z,76983.56
2023-03-04T07:33:44.334Z,76967.25
2023-03-04T07:36:14.833Z,76977.44
2023-03-04T07:38:45.193Z,76959.09
2023-03-04T07:41:13.129Z,76952.97
2023-03-04T07:43:40.874Z,76946.84
2023-03-04T07:46:10.484Z,76934.63
2023-03-04T07:48:38.364Z,76934.63
2023-03-04T07:51:08.693Z,76916.25
2023-03-04T07:53:38.119Z,76910.16
2023-03-04T07:56:07.370Z,76891.78
2023-03-04T07:58:35.161Z,76873.44
2023-03-04T08:01:03.022Z,76869.34
2023-03-04T08:03:32.138Z,76869.34
2023-03-04T08:05:59.868Z,76881.59
2023-03-04T08:08:27.639Z,76861.19
2023-03-04T08:10:55.424Z,76848.97
2023-03-04T08:13:25.554Z,76848.97
2023-03-04T08:15:53.711Z,76844.88
2023-03-04T08:18:21.534Z,76836.72
2023-03-04T08:20:50.615Z,76830.63
2023-03-04T08:23:18.316Z,76820.41
2023-03-04T08:25:47.154Z,76820.41
2023-03-04T08:28:16.069Z,76832.66
2023-03-04T08:30:44.088Z,76832.66
2023-03-04T08:33:12.080Z,76828.56
2023-03-04T08:35:41.231Z,76820.41
2023-03-04T08:38:10.468Z,76787.78
2023-03-04T08:40:38.250Z,76779.63
2023-03-04T08:43:06.008Z,76771.47
2023-03-04T08:45:33.741Z,76747.00
2023-03-04T08:48:01.543Z,76755.16
2023-03-04T08:50:29.326Z,76751.09
2023-03-04T08:52:57.073Z,76744.97
2023-03-04T08:55:26.215Z,76738.84
2023-03-04T08:57:54.232Z,76722.53
2023-03-04T09:00:22.339Z,76689.91
2023-03-04T09:02:50.312Z,76669.53
2023-03-04T09:05:18.341Z,76655.25
2023-03-04T09:07:46.223Z,76645.03
2023-03-04T09:10:14.091Z,76614.47
2023-03-04T09:12:43.180Z,76608.34
2023-03-04T09:15:12.177Z,76620.56
2023-03-04T09:17:40.483Z,76638.94
2023-03-04T09:20:11.388Z,76620.56
2023-03-04T09:22:39.806Z,76616.50
2023-03-04T09:25:12.857Z,76640.97
2023-03-04T09:27:40.924Z,76636.91
2023-03-04T09:30:11.881Z,76624.66
2023-03-04T09:32:39.997Z,76632.81
2023-03-04T09:35:08.387Z,76620.56
2023-03-04T09:37:36.133Z,76614.47
2023-03-04T09:40:04.781Z,76587.94
2023-03-04T09:42:36.607Z,76563.47
2023-03-04T09:45:06.513Z,76530.84
2023-03-04T09:47:38.861Z,76524.75
2023-03-04T09:50:10.041Z,76506.38
2023-03-04T09:52:52.274Z,76479.88
2023-03-04T09:55:25.294Z,76449.28
2023-03-04T09:57:58.316Z,76441.16
2023-03-04T10:00:31.851Z,76416.69
2023-03-04T10:03:10.839Z,76369.78
2023-03-04T10:05:43.363Z,76361.63
2023-03-04T10:08:35.652Z,76357.53
2023-03-04T10:11:07.936Z,76314.72
2023-03-04T10:13:41.376Z,76343.28
2023-03-04T10:16:14.051Z,76310.66
2023-03-04T10:18:51.245Z,76310.66
2023-03-04T10:21:25.305Z,76322.88
2023-03-04T10:23:54.339Z,76314.72
2023-03-04T10:26:23.476Z,76249.47
2023-03-04T10:28:51.459Z,76249.47
2023-03-04T10:31:28.582Z,76263.75
2023-03-04T10:33:57.723Z,76261.72
2023-03-04T10:36:39.737Z,76261.72
2023-03-04T10:39:10.872Z,76227.06
2023-03-04T10:41:43.017Z,76208.69
2023-03-04T10:44:17.443Z,76206.66
2023-03-04T10:46:47.420Z,76192.41
2023-03-04T10:49:18.289Z,76200.56
2023-03-04T10:51:48.573Z,76212.78
2023-03-04T10:54:26.150Z,76225.00
2023-03-04T10:56:57.148Z,76202.59
2023-03-04T10:59:46.134Z,76163.84
2023-03-04T11:02:33.172Z,76147.53
2023-03-04T11:05:19.490Z,76163.84
2023-03-04T11:07:56.650Z,76178.13
2023-03-04T11:10:29.774Z,76180.16
2023-03-04T11:13:02.062Z,76167.94
2023-03-04T11:15:32.934Z,76155.69
2023-03-04T11:18:03.750Z,76139.38
2023-03-04T11:20:35.785Z,76131.22
2023-03-04T11:23:06.599Z,76114.91
2023-03-04T11:25:41.383Z,76106.75
2023-03-04T11:28:16.080Z,76076.19
2023-03-04T11:30:49.571Z,76076.19
2023-03-04T11:33:23.646Z,76025.22
2023-03-04T11:36:04.942Z,76049.69
2023-03-04T11:38:36.376Z,76051.72
2023-03-04T11:41:11.188Z,76063.94
2023-03-04T11:43:40.837Z,76037.44
2023-03-04T11:46:48.443Z,76012.97
2023-03-04T11:49:32.410Z,75992.59
2023-03-04T11:52:11.378Z,75986.47
2023-03-04T11:54:48.647Z,75947.75
2023-03-04T11:57:30.267Z,75943.66
2023-03-04T12:00:08.920Z,75939.59
2023-03-04T12:02:43.713Z,75951.81
2023-03-04T12:05:20.850Z,75978.31
2023-03-04T12:08:18.543Z,75968.13
2023-03-04T12:10:55.124Z,75968.13
2023-03-04T12:13:59.389Z,75945.69
2023-03-04T12:16:52.649Z,75911.03
2023-03-04T12:19:29.045Z,75923.28
2023-03-04T12:22:21.359Z,75943.66
2023-03-04T12:25:20.407Z,75931.44
2023-03-04T12:27:59.899Z,75923.28
2023-03-04T12:30:40.710Z,75911.03
2023-03-04T12:33:18.390Z,75906.97
2023-03-04T12:35:53.401Z,75898.81
2023-03-04T12:38:55.345Z,75900.84
2023-03-04T12:41:34.333Z,75890.66
2023-03-04T12:44:16.931Z,75882.50
2023-03-04T12:47:11.666Z,75880.47
2023-03-04T12:49:52.930Z,75880.47
2023-03-04T12:52:33.118Z,75872.31
2023-03-04T12:55:04.986Z,75853.97
2023-03-04T12:57:34.530Z,75858.03
2023-03-04T13:00:18.360Z,75849.88
2023-03-04T13:02:58.389Z,75841.72
2023-03-04T13:05:37.615Z,75829.50
2023-03-04T13:08:19.722Z,75821.34
2023-03-04T13:10:47.535Z,75811.16
2023-03-04T13:13:40.347Z,75809.13
2023-03-04T13:16:33.239Z,75788.72
2023-03-04T13:19:04.087Z,75803.00
2023-03-04T13:21:32.917Z,75847.84
2023-03-04T13:24:23.013Z,75839.69
2023-03-04T13:26:50.951Z,75827.47
2023-03-04T13:29:37.076Z,75841.72
2023-03-04T13:32:06.456Z,75851.91
2023-03-04T13:34:46.568Z,75815.22
2023-03-04T13:37:34.032Z,75813.19
2023-03-04T13:40:33.817Z,75819.31
2023-03-04T13:43:27.344Z,75809.13
2023-03-04T13:45:56.783Z,75803.00
2023-03-04T13:48:29.955Z,75805.03
2023-03-04T13:50:58.920Z,75776.50
2023-03-04T13:53:45.615Z,75772.41
2023-03-04T13:56:31.412Z,75764.25
2023-03-04T13:59:26.935Z,75772.41
2023-03-04T14:02:02.173Z,75782.59
2023-03-04T14:04:33.448Z,75807.06
2023-03-04T14:07:02.932Z,75800.97
2023-03-04T14:09:32.719Z,75809.13
2023-03-04T14:12:03.813Z,75813.19
2023-03-04T14:14:47.598Z,75817.25
2023-03-04T14:17:20.685Z,75849.88
2023-03-04T14:19:49.702Z,75829.50
2023-03-04T14:22:23.231Z,75825.41
2023-03-04T14:25:02.511Z,75851.91
2023-03-04T14:27:33.027Z,75856.00
2023-03-04T14:30:02.981Z,75843.75
2023-03-04T14:32:32.525Z,75825.41
2023-03-04T14:35:03.593Z,75837.66
2023-03-04T14:37:40.091Z,75837.66
2023-03-04T14:40:10.021Z,75845.81
2023-03-04T14:42:42.425Z,75858.03
2023-03-04T14:45:13.332Z,75862.13
2023-03-04T14:47:45.506Z,75860.06
2023-03-04T14:50:16.134Z,75853.97
2023-03-04T14:52:46.362Z,75858.03
2023-03-04T14:55:22.435Z,75870.28
2023-03-04T14:57:58.191Z,75874.34
2023-03-04T15:00:30.569Z,75868.22
2023-03-04T15:03:02.412Z,75853.97
2023-03-04T15:05:32.185Z,75876.38
2023-03-04T15:08:02.012Z,75880.47
2023-03-04T15:10:32.050Z,75882.50
2023-03-04T15:13:03.669Z,75890.66
2023-03-04T15:15:36.492Z,75890.66
2023-03-04T15:18:17.548Z,75888.63
2023-03-04T15:20:54.516Z,75880.47
2023-03-04T15:23:22.298Z,75894.75
2023-03-04T15:25:52.870Z,75898.81
2023-03-04T15:28:21.509Z,75909.00
2023-03-04T15:30:49.624Z,75892.69
2023-03-04T15:33:21.161Z,75919.19
2023-03-04T15:35:55.121Z,75935.50
2023-03-04T15:38:23.438Z,75955.91
2023-03-04T15:40:54.292Z,75951.81
2023-03-04T15:43:24.054Z,75955.91
2023-03-04T15:45:52.818Z,75935.50
2023-03-04T15:48:22.124Z,75966.09
2023-03-04T15:50:54.909Z,75964.06
2023-03-04T15:53:29.503Z,75966.09
2023-03-04T15:55:57.263Z,75968.13
2023-03-04T15:58:25.228Z,75972.22
2023-03-04T16:00:52.962Z,75986.47
2023-03-04T16:03:22.877Z,76017.06
2023-03-04T16:05:52.782Z,76039.47
2023-03-04T16:08:22.262Z,76045.59
2023-03-04T16:10:50.005Z,76053.75
2023-03-04T16:13:19.557Z,76047.63
2023-03-04T16:15:48.029Z,76055.78
2023-03-04T16:18:16.489Z,76068.03
2023-03-04T16:20:48.971Z,76084.34
2023-03-04T16:23:20.030Z,76110.84
2023-03-04T16:25:49.574Z,76139.38
2023-03-04T16:28:17.341Z,76151.63
2023-03-04T16:30:45.159Z,76163.84
2023-03-04T16:33:15.013Z,76167.94
2023-03-04T16:35:46.510Z,76180.16
2023-03-04T16:38:23.172Z,76200.56
2023-03-04T16:40:50.993Z,76200.56
2023-03-04T16:43:18.844Z,76206.66
2023-03-04T16:45:46.649Z,76225.00
2023-03-04T16:48:14.371Z,76253.56
2023-03-04T16:50:43.104Z,76282.09
2023-03-04T16:53:25.510Z,76298.41
2023-03-04T16:55:53.391Z,76302.50
2023-03-04T16:58:21.505Z,76310.66
2023-03-04T17:00:49.443Z,76331.03
2023-03-04T17:03:17.240Z,76324.91
2023-03-04T17:05:45.297Z,76339.19
2023-03-04T17:08:13.030Z,76347.34
2023-03-04T17:10:42.286Z,76349.38
2023-03-04T17:13:10.031Z,76363.66
2023-03-04T17:15:37.884Z,76375.91
2023-03-04T17:18:05.832Z,76388.13
2023-03-04T17:20:33.613Z,76404.44
2023-03-04T17:23:01.357Z,76416.69
2023-03-04T17:25:29.147Z,76428.91
2023-03-04T17:27:58.253Z,76424.84
2023-03-04T17:30:28.154Z,76439.09
2023-03-04T17:32:55.929Z,76445.22
2023-03-04T17:35:25.673Z,76457.44
2023-03-04T17:37:53.458Z,76461.53
2023-03-04T17:40:21.420Z,76477.84
2023-03-04T17:42:49.139Z,76502.31
2023-03-04T17:45:18.431Z,76522.69
2023-03-04T17:47:46.548Z,76545.13
2023-03-04T17:50:14.273Z,76561.44
2023-03-04T17:52:42.508Z,76590.00
2023-03-04T17:55:11.196Z,76596.09
2023-03-04T17:57:39.585Z,76618.53
2023-03-04T18:00:08.576Z,76636.91
2023-03-04T18:02:37.721Z,76632.81
2023-03-04T18:05:07.453Z,76655.25
2023-03-04T18:07:35.218Z,76673.59
2023-03-04T18:10:03.157Z,76681.75
2023-03-04T18:12:30.927Z,76694.00
2023-03-04T18:14:58.704Z,76691.94
2023-03-04T18:17:26.803Z,76698.06
2023-03-04T18:19:56.718Z,76708.25
2023-03-04T18:22:24.707Z,76726.63
2023-03-04T18:24:52.764Z,76744.97
2023-03-04T18:27:20.527Z,76759.25
2023-03-04T18:29:48.322Z,76755.16
2023-03-04T18:32:16.127Z,76775.56
2023-03-04T18:34:43.885Z,76775.56
2023-03-04T18:37:13.005Z,76800.03
2023-03-04T18:39:40.968Z,76804.09
2023-03-04T18:42:08.952Z,76812.25
2023-03-04T18:44:36.809Z,76836.72
2023-03-04T18:47:04.764Z,76836.72
2023-03-04T18:49:32.825Z,76861.19
2023-03-04T18:52:00.645Z,76881.59
2023-03-04T18:54:29.916Z,76879.56
2023-03-04T18:57:01.922Z,76901.97
2023-03-04T18:59:36.995Z,76922.38
2023-03-04T19:02:16.935Z,76938.69
2023-03-04T19:04:44.877Z,76955.00
2023-03-04T19:07:12.620Z,76967.25
2023-03-04T19:09:41.706Z,76973.38
2023-03-04T19:12:10.060Z,76983.56
2023-03-04T19:14:37.947Z,76987.63
2023-03-04T19:17:05.800Z,76999.88
2023-03-04T19:19:34.117Z,77003.94
2023-03-04T19:22:02.059Z,77012.09
2023-03-04T19:24:30.179Z,77032.50
2023-03-04T19:26:59.383Z,77032.50
2023-03-04T19:29:30.505Z,77028.41
2023-03-04T19:31:58.871Z,77056.97
2023-03-04T19:34:26.819Z,77044.75
2023-03-04T19:36:54.574Z,77065.13
2023-03-04T19:39:22.678Z,77081.44
2023-03-04T19:41:50.598Z,77089.59
2023-03-04T19:44:19.821Z,77091.66
2023-03-04T19:46:47.639Z,77105.91
2023-03-04T19:49:15.381Z,77112.03
2023-03-04T19:51:43.148Z,77136.50
2023-03-04T19:54:10.980Z,77118.16
2023-03-04T19:56:38.872Z,77138.56
2023-03-04T19:59:06.756Z,77144.66
2023-03-04T20:01:37.783Z,77140.59
2023-03-04T20:04:08.488Z,77130.41
2023-03-04T20:06:37.742Z,77136.50
2023-03-04T20:09:05.997Z,77132.44
2023-03-04T20:11:39.234Z,77130.41
2023-03-04T20:14:12.215Z,77126.31
2023-03-04T20:16:41.675Z,77134.47
2023-03-04T20:19:09.544Z,77144.66
2023-03-04T20:21:37.336Z,77146.72
2023-03-04T20:24:05.688Z,77146.72
2023-03-04T20:26:33.536Z,77154.88
2023-03-04T20:29:01.545Z,77165.06
2023-03-04T20:31:32.005Z,77171.19
2023-03-04T20:34:01.406Z,77179.34
2023-03-04T20:36:30.734Z,77187.50
2023-03-04T20:39:05.413Z,77177.31
2023-03-04T20:41:38.981Z,77191.56
2023-03-04T20:44:08.582Z,77175.25
2023-03-04T20:46:39.877Z,77191.56
2023-03-04T20:49:11.606Z,77187.50
2023-03-04T20:51:39.921Z,77183.41
2023-03-04T20:54:08.550Z,77171.19
2023-03-04T20:56:37.399Z,77175.25
2023-03-04T20:59:08.185Z,77163.03
2023-03-04T21:01:37.084Z,77171.19
2023-03-04T21:04:05.486Z,77175.25
2023-03-04T21:06:34.724Z,77183.41
2023-03-04T21:09:04.714Z,77171.19
2023-03-04T21:11:39.895Z,77175.25
2023-03-04T21:14:12.499Z,77158.94
2023-03-04T21:16:40.282Z,77183.41
2023-03-04T21:19:08.228Z,77167.09
2023-03-04T21:21:37.404Z,77183.41
2023-03-04T21:24:05.409Z,77175.25
2023-03-04T21:26:33.335Z,77175.25
2023-03-04T21:29:01.065Z,77183.41
2023-03-04T21:31:36.021Z,77175.25
2023-03-04T21:34:04.011Z,77171.19
2023-03-04T21:36:31.753Z,77171.19
2023-03-04T21:39:00.859Z,77165.06
2023-03-04T21:41:30.397Z,77171.19
2023-03-04T21:43:58.139Z,77171.19
2023-03-04T21:46:25.894Z,77171.19
2023-03-04T21:48:53.690Z,77171.19
2023-03-04T21:51:21.469Z,77148.75
2023-03-04T21:53:49.344Z,77154.88
2023-03-04T21:56:18.495Z,77150.78
2023-03-04T21:58:46.256Z,77148.75
2023-03-04T22:01:15.627Z,77158.94
2023-03-04T22:03:43.834Z,77150.78
2023-03-04T22:06:13.328Z,77150.78
2023-03-04T22:08:42.015Z,77158.94
2023-03-04T22:11:12.075Z,77154.88
2023-03-04T22:13:41.287Z,77158.94
2023-03-04T22:16:10.163Z,77158.94
2023-03-04T22:18:39.567Z,77148.75
2023-03-04T22:21:10.283Z,77142.63
2023-03-04T22:23:38.226Z,77142.63
2023-03-04T22:26:08.180Z,77146.72
2023-03-04T22:28:36.585Z,77150.78
2023-03-04T22:31:14.588Z,77134.47
2023-03-04T22:33:42.414Z,77134.47
2023-03-04T22:36:10.327Z,77138.56
2023-03-04T22:38:38.230Z,77134.47
2023-03-04T22:41:06.631Z,77134.47
2023-03-04T22:43:34.463Z,77134.47
2023-03-04T22:46:02.209Z,77130.41
2023-03-04T22:48:31.298Z,77132.44
2023-03-04T22:51:05.444Z,77132.44
2023-03-04T22:53:33.193Z,77132.44
2023-03-04T22:56:01.088Z,77134.47
2023-03-04T22:58:28.838Z,77128.34
2023-03-04T23:00:56.623Z,77120.19
2023-03-04T23:03:24.581Z,77124.28
2023-03-04T23:06:03.362Z,77118.16
2023-03-04T23:08:31.370Z,77122.22
2023-03-04T23:10:59.136Z,77118.16
2023-03-04T23:13:27.154Z,77118.16
2023-03-04T23:15:54.975Z,77114.06
2023-03-04T23:18:22.747Z,77118.16
2023-03-04T23:20:50.497Z,77110.00
2023-03-04T23:23:19.689Z,77114.06
2023-03-04T23:25:49.224Z,77118.16
2023-03-04T23:28:16.957Z,77110.00
2023-03-04T23:30:44.779Z,77114.06
2023-03-04T23:33:12.542Z,77105.91
2023-03-04T23:35:40.345Z,77099.81
2023-03-04T23:38:08.177Z,77101.84
2023-03-04T23:40:37.586Z,77101.84
2023-03-04T23:43:06.499Z,77103.88
2023-03-04T23:45:34.399Z,77101.84
2023-03-04T23:48:02.167Z,77101.84
2023-03-04T23:50:32.162Z,77093.69
2023-03-04T23:52:59.956Z,77097.75
2023-03-04T23:55:29.280Z,77083.50
2023-03-04T23:57:58.343Z,77087.56
